Time;durP1;ratioP1;P1;durP2;ratioP2;P2;SDS_P1;SDS_P2;PMS_P1;PMS_P2;Temp;Humidity;BMP_temperature;BMP_pressure;BME280_temperature;BME280_humidity;BME280_pressure;Samples;Min_cycle;Max_cycle;Signal;HPM_P1;HPM_P2
2023/06/11 00:04:24;;;;;;;;;;;20.70;71.50;;;;;;6193041;23;19966;-76
2023/06/11 00:07:22;;;;;;;;;;;20.60;71.30;;;;;;6209915;23;20253;-77
2023/06/11 00:09:48;;;;;;;;;;;20.70;71.30;;;;;;6134070;23;20242;-78
2023/06/11 00:12:14;;;;;;;;;;;20.70;71.50;;;;;;6091370;23;19921;-79
2023/06/11 00:15:14;;;;;;;;;;;20.70;71.40;;;;;;6117588;23;19909;-78
2023/06/11 00:18:01;;;;;;;;;;;20.70;71.20;;;;;;6121716;23;19920;-78
2023/06/11 00:20:27;;;;;;;;;;;20.70;71.40;;;;;;6028716;23;19917;-78
2023/06/11 00:23:08;;;;;;;;;;;20.60;71.30;;;;;;6037458;23;19949;-78
2023/06/11 00:25:35;;;;;;;;;;;20.60;71.30;;;;;;6028086;23;20462;-77
2023/06/11 00:28:38;;;;;;;;;;;20.60;71.50;;;;;;6023982;23;20120;-78
2023/06/11 00:31:04;;;;;;;;;;;20.60;71.50;;;;;;6034781;23;20497;-79
2023/06/11 00:33:54;;;;;;;;;;;20.60;71.60;;;;;;6009916;23;19913;-79
2023/06/11 00:36:21;;;;;;;;;;;20.50;71.50;;;;;;6034615;23;20407;-78
2023/06/11 00:38:59;;;;;;;;;;;20.50;71.60;;;;;;6007255;23;20226;-77
2023/06/11 00:42:03;;;;;;;;;;;20.50;71.40;;;;;;6051708;23;19928;-78
2023/06/11 00:44:36;;;;;;;;;;;20.50;71.50;;;;;;6004133;23;19982;-78
2023/06/11 00:47:02;;;;;;;;;;;20.50;71.60;;;;;;5971468;23;20343;-79
2023/06/11 00:49:47;;;;;;;;;;;20.50;71.50;;;;;;5995226;23;19947;-80
2023/06/11 00:52:14;;;;;;;;;;;20.50;71.50;;;;;;6045805;23;20036;-80
2023/06/11 00:54:43;;;;;;;;;;;20.40;71.60;;;;;;6056434;23;20050;-80
2023/06/11 00:57:17;;;;;;;;;;;20.40;71.70;;;;;;6039029;23;19953;-80
2023/06/11 01:00:07;;;;;;;;;;;20.40;71.60;;;;;;6058822;23;20040;-80
2023/06/11 01:02:38;;;;;;;;;;;20.40;71.70;;;;;;6062836;23;20485;-77
2023/06/11 01:05:05;;;;;;;;;;;20.40;71.60;;;;;;6057413;23;19929;-80
2023/06/11 01:07:41;;;;;;;;;;;20.40;71.60;;;;;;6055931;23;19921;-80
2023/06/11 01:10:08;;;;;;;;;;;20.40;71.50;;;;;;6057810;23;19913;-79
2023/06/11 01:12:34;;;;;;;;;;;20.40;71.50;;;;;;6045694;23;19985;-81
2023/06/11 01:15:00;;;;;;;;;;;20.40;71.70;;;;;;6084881;23;19951;-78
2023/06/11 01:17:35;;;;;;;;;;;20.40;71.80;;;;;;6173637;23;20333;-80
2023/06/11 01:20:12;;;;;;;;;;;20.40;71.50;;;;;;6179460;23;20014;-80
2023/06/11 01:22:56;;;;;;;;;;;20.40;71.50;;;;;;6153558;23;19951;-79
2023/06/11 01:25:33;;;;;;;;;;;20.40;71.60;;;;;;6150622;23;20322;-79
2023/06/11 01:28:07;;;;;;;;;;;20.40;71.40;;;;;;6163889;23;19915;-80
2023/06/11 01:30:36;;;;;;;;;;;20.40;71.30;;;;;;6153977;23;20234;-78
2023/06/11 01:33:03;;;;;;;;;;;20.40;71.40;;;;;;6210249;23;19950;-78
2023/06/11 01:35:43;;;;;;;;;;;20.50;71.30;;;;;;6185153;23;19939;-78
2023/06/11 01:38:09;;;;;;;;;;;20.40;71.20;;;;;;6210330;23;19916;-80
2023/06/11 01:40:41;;;;;;;;;;;20.50;71.30;;;;;;6214439;23;19922;-78
2023/06/11 01:43:10;;;;;;;;;;;20.50;71.00;;;;;;6241113;22;19989;-78
2023/06/11 01:45:39;;;;;;;;;;;20.50;70.80;;;;;;6214617;23;19918;-78
2023/06/11 01:48:05;;;;;;;;;;;20.50;70.80;;;;;;6215788;23;20321;-80
2023/06/11 01:50:50;;;;;;;;;;;20.50;71.00;;;;;;6241525;23;19926;-79
2023/06/11 01:53:16;;;;;;;;;;;20.50;71.20;;;;;;6216210;23;20361;-80
2023/06/11 01:55:58;;;;;;;;;;;20.50;71.20;;;;;;6240379;23;19915;-79
2023/06/11 01:58:24;;;;;;;;;;;20.50;71.10;;;;;;6214821;23;19938;-79
2023/06/11 02:00:50;;;;;;;;;;;20.50;71.40;;;;;;6214935;23;19922;-77
2023/06/11 02:03:16;;;;;;;;;;;20.50;71.30;;;;;;6215837;23;19986;-77
2023/06/11 02:05:54;;;;;;;;;;;20.50;71.30;;;;;;6214731;23;19915;-78
2023/06/11 02:08:36;;;;;;;;;;;20.40;71.30;;;;;;6242934;23;20270;-77
2023/06/11 02:11:21;;;;;;;;;;;20.40;71.10;;;;;;6187412;23;19915;-78
2023/06/11 02:14:01;;;;;;;;;;;20.40;71.20;;;;;;6183620;23;20303;-79
2023/06/11 02:16:27;;;;;;;;;;;20.40;71.20;;;;;;6182654;23;19939;-79
2023/06/11 02:19:11;;;;;;;;;;;20.40;71.20;;;;;;6183790;23;19943;-77
2023/06/11 02:21:37;;;;;;;;;;;20.30;71.00;;;;;;6182706;23;19915;-77
2023/06/11 02:24:36;;;;;;;;;;;20.30;71.10;;;;;;6208424;23;19912;-79
2023/06/11 02:27:02;;;;;;;;;;;20.30;71.00;;;;;;6183527;23;19916;-77
2023/06/11 02:29:28;;;;;;;;;;;20.40;71.30;;;;;;6183935;23;19924;-77
2023/06/11 02:31:54;;;;;;;;;;;20.30;71.20;;;;;;6182229;23;20023;-78
2023/06/11 02:34:20;;;;;;;;;;;20.30;71.10;;;;;;6183918;23;19954;-77
2023/06/11 02:36:46;;;;;;;;;;;20.30;71.10;;;;;;6183265;23;19908;-79
2023/06/11 02:39:12;;;;;;;;;;;20.30;71.00;;;;;;6182320;23;19916;-79
2023/06/11 02:41:37;;;;;;;;;;;20.30;71.00;;;;;;6188910;23;20377;-80
2023/06/11 02:44:04;;;;;;;;;;;20.30;71.00;;;;;;6190402;23;20005;-78
2023/06/11 02:46:29;;;;;;;;;;;20.30;70.30;;;;;;6214833;23;19935;-78
2023/06/11 02:48:55;;;;;;;;;;;20.30;71.10;;;;;;6215395;23;19987;-79
2023/06/11 02:51:40;;;;;;;;;;;20.20;71.00;;;;;;6189478;23;19994;-78
2023/06/11 02:54:06;;;;;;;;;;;20.20;70.80;;;;;;6215709;23;19938;-79
2023/06/11 02:56:51;;;;;;;;;;;20.20;70.70;;;;;;6241492;22;20275;-79
2023/06/11 02:59:17;;;;;;;;;;;20.30;70.50;;;;;;6242863;23;19911;-79
2023/06/11 03:01:46;;;;;;;;;;;20.30;70.40;;;;;;6241047;22;20417;-79
2023/06/11 03:04:12;;;;;;;;;;;20.30;70.20;;;;;;6215623;23;19915;-78
2023/06/11 03:06:59;;;;;;;;;;;20.30;70.20;;;;;;6240740;22;19916;-79
2023/06/11 03:09:25;;;;;;;;;;;20.40;69.90;;;;;;6214939;23;19918;-79
2023/06/11 03:11:52;;;;;;;;;;;20.40;70.00;;;;;;6241457;23;20218;-78
2023/06/11 03:14:20;;;;;;;;;;;20.40;69.20;;;;;;6242725;23;19912;-77
2023/06/11 03:16:46;;;;;;;;;;;20.40;69.90;;;;;;6214929;23;19914;-78
2023/06/11 03:19:11;;;;;;;;;;;20.40;69.60;;;;;;6215273;23;19994;-77
2023/06/11 03:21:43;;;;;;;;;;;20.40;69.50;;;;;;6215674;23;19938;-79
2023/06/11 03:24:18;;;;;;;;;;;20.50;69.40;;;;;;6217115;23;19912;-78
2023/06/11 03:26:44;;;;;;;;;;;20.40;69.30;;;;;;6216371;23;19943;-79
2023/06/11 03:29:10;;;;;;;;;;;20.50;69.60;;;;;;6217027;23;19915;-78
2023/06/11 03:31:38;;;;;;;;;;;20.40;69.40;;;;;;6216131;23;19916;-79
2023/06/11 03:34:04;;;;;;;;;;;20.50;69.40;;;;;;6217336;23;19919;-78
2023/06/11 03:36:30;;;;;;;;;;;20.50;69.30;;;;;;6216063;23;19934;-78
2023/06/11 03:38:56;;;;;;;;;;;20.50;69.20;;;;;;6244066;23;19923;-79
2023/06/11 03:41:35;;;;;;;;;;;20.50;69.30;;;;;;6243147;23;20491;-80
2023/06/11 03:44:01;;;;;;;;;;;20.50;69.10;;;;;;6191374;23;19919;-79
2023/06/11 03:46:33;;;;;;;;;;;20.50;69.30;;;;;;6242997;23;20242;-78
2023/06/11 03:48:59;;;;;;;;;;;20.50;69.10;;;;;;6216589;22;19916;-79
2023/06/11 03:51:25;;;;;;;;;;;20.50;68.90;;;;;;6190909;23;19912;-78
2023/06/11 03:53:51;;;;;;;;;;;20.60;68.20;;;;;;6216900;23;19989;-79
2023/06/11 03:56:26;;;;;;;;;;;20.60;68.80;;;;;;6191113;23;20014;-78
2023/06/11 03:58:52;;;;;;;;;;;20.60;68.60;;;;;;6216707;23;19914;-78
2023/06/11 04:01:52;;;;;;;;;;;20.60;68.60;;;;;;6243160;23;19967;-78
2023/06/11 04:04:18;;;;;;;;;;;20.60;68.30;;;;;;6216970;23;19919;-79
2023/06/11 04:06:44;;;;;;;;;;;20.70;68.40;;;;;;6216380;23;20488;-79
2023/06/11 04:09:10;;;;;;;;;;;20.70;68.30;;;;;;6243870;23;19919;-79
2023/06/11 04:11:45;;;;;;;;;;;20.70;68.20;;;;;;6242086;23;19907;-78
2023/06/11 04:14:11;;;;;;;;;;;20.70;68.00;;;;;;6216832;22;19911;-78
2023/06/11 04:16:37;;;;;;;;;;;20.80;67.90;;;;;;6243182;23;19974;-79
2023/06/11 04:19:19;;;;;;;;;;;20.80;67.80;;;;;;6243626;23;19908;-79
2023/06/11 04:21:45;;;;;;;;;;;20.80;67.60;;;;;;6243311;23;19915;-79
2023/06/11 04:24:11;;;;;;;;;;;20.80;67.70;;;;;;6216870;23;19973;-79
2023/06/11 04:26:37;;;;;;;;;;;20.90;67.60;;;;;;6216525;23;19935;-79
2023/06/11 04:29:03;;;;;;;;;;;20.90;67.50;;;;;;6216457;23;19927;-79
2023/06/11 04:31:46;;;;;;;;;;;20.90;67.20;;;;;;6215491;23;20189;-79
2023/06/11 04:34:28;;;;;;;;;;;21.00;67.10;;;;;;6216945;23;19938;-79
2023/06/11 04:37:22;;;;;;;;;;;21.00;67.10;;;;;;6216673;23;19943;-78
2023/06/11 04:43:03;;;;;;;;;;;21.10;66.80;;;;;;6220901;23;19914;-79
2023/06/11 04:45:30;;;;;;;;;;;21.20;66.50;;;;;;6216065;23;20234;-78
2023/06/11 04:47:56;;;;;;;;;;;21.30;66.60;;;;;;6216239;23;19911;-78
2023/06/11 04:50:28;;;;;;;;;;;21.30;66.50;;;;;;6216124;23;19916;-78
2023/06/11 04:53:12;;;;;;;;;;;21.30;66.40;;;;;;6216533;23;19915;-79
2023/06/11 04:55:40;;;;;;;;;;;21.40;66.30;;;;;;6217334;23;19950;-79
2023/06/11 04:58:26;;;;;;;;;;;21.40;66.20;;;;;;6216494;23;20391;-78
2023/06/11 05:01:08;;;;;;;;;;;21.50;66.10;;;;;;6215628;23;19926;-78
2023/06/11 05:03:37;;;;;;;;;;;21.50;65.90;;;;;;6216959;23;20292;-78
2023/06/11 05:06:13;;;;;;;;;;;21.60;65.80;;;;;;6215988;23;19919;-78
2023/06/11 05:08:39;;;;;;;;;;;21.70;65.60;;;;;;6216405;23;20145;-78
2023/06/11 05:11:05;;;;;;;;;;;21.70;65.50;;;;;;6215874;23;19916;-77
2023/06/11 05:13:31;;;;;;;;;;;21.70;65.70;;;;;;6190944;23;20587;-78
2023/06/11 05:16:21;;;;;;;;;;;21.70;65.60;;;;;;6215441;23;20285;-78
2023/06/11 05:18:55;;;;;;;;;;;21.70;65.50;;;;;;6090815;23;19909;-78
2023/06/11 05:21:21;;;;;;;;;;;21.70;65.40;;;;;;6066712;23;19937;-78
2023/06/11 05:23:50;;;;;;;;;;;21.70;65.40;;;;;;6066920;23;19984;-78
2023/06/11 05:26:18;;;;;;;;;;;21.80;65.20;;;;;;6043003;23;19917;-79
2023/06/11 05:28:47;;;;;;;;;;;21.80;65.30;;;;;;6042995;23;19917;-79
2023/06/11 05:31:23;;;;;;;;;;;21.80;65.10;;;;;;6065991;23;20410;-78
2023/06/11 05:33:50;;;;;;;;;;;21.80;64.90;;;;;;6066344;23;19947;-79
2023/06/11 05:36:16;;;;;;;;;;;21.80;64.90;;;;;;6066432;23;19925;-80
2023/06/11 05:38:43;;;;;;;;;;;21.80;65.20;;;;;;6066514;23;19909;-78
2023/06/11 05:41:09;;;;;;;;;;;21.80;64.90;;;;;;6090438;23;19913;-79
2023/06/11 05:43:35;;;;;;;;;;;21.80;64.30;;;;;;6090342;23;19924;-78
2023/06/11 05:46:04;;;;;;;;;;;21.80;65.00;;;;;;6089497;23;20173;-80
2023/06/11 05:48:45;;;;;;;;;;;21.80;65.00;;;;;;6066761;23;19945;-79
2023/06/11 05:51:11;;;;;;;;;;;21.80;65.10;;;;;;6090357;23;19909;-80
2023/06/11 05:53:53;;;;;;;;;;;21.80;65.40;;;;;;6066755;23;20302;-78
2023/06/11 05:56:18;;;;;;;;;;;21.80;65.30;;;;;;6194589;23;20270;-78
2023/06/11 05:58:44;;;;;;;;;;;21.80;65.30;;;;;;6216523;23;19924;-79
2023/06/11 06:01:12;;;;;;;;;;;21.80;65.30;;;;;;6215293;23;19923;-78
2023/06/11 06:03:38;;;;;;;;;;;21.80;65.30;;;;;;6216327;23;20227;-78
2023/06/11 06:06:16;;;;;;;;;;;21.70;65.50;;;;;;6242071;23;19957;-77
2023/06/11 06:08:41;;;;;;;;;;;21.60;65.40;;;;;;6190358;23;19915;-80
2023/06/11 06:11:07;;;;;;;;;;;21.60;65.60;;;;;;6216113;23;19986;-78
2023/06/11 06:13:33;;;;;;;;;;;21.60;65.90;;;;;;6216155;23;19942;-80
2023/06/11 06:15:59;;;;;;;;;;;21.50;65.20;;;;;;6214800;23;19919;-79
2023/06/11 06:18:27;;;;;;;;;;;21.50;65.80;;;;;;6190621;23;19989;-80
2023/06/11 06:20:53;;;;;;;;;;;21.50;66.90;;;;;;6215434;23;19915;-78
2023/06/11 06:23:18;;;;;;;;;;;21.50;66.30;;;;;;6243177;22;19947;-77
2023/06/11 06:25:45;;;;;;;;;;;21.40;66.70;;;;;;6214812;23;19946;-77
2023/06/11 06:28:26;;;;;;;;;;;21.30;67.10;;;;;;6215595;23;20338;-80
2023/06/11 06:30:58;;;;;;;;;;;21.30;67.10;;;;;;6241459;23;19908;-79
2023/06/11 06:33:24;;;;;;;;;;;21.30;67.40;;;;;;6216285;23;19915;-78
2023/06/11 06:36:23;;;;;;;;;;;21.20;67.80;;;;;;6215824;23;19931;-78
2023/06/11 06:38:49;;;;;;;;;;;21.20;67.70;;;;;;6216403;23;19915;-81
2023/06/11 06:41:15;;;;;;;;;;;21.20;68.10;;;;;;6215484;23;19983;-80
2023/06/11 06:43:53;;;;;;;;;;;21.10;68.50;;;;;;6190883;23;19919;-77
2023/06/11 06:46:19;;;;;;;;;;;21.10;68.70;;;;;;6215298;23;19916;-80
2023/06/11 06:48:45;;;;;;;;;;;21.10;68.90;;;;;;6215730;23;19969;-77
2023/06/11 06:51:11;;;;;;;;;;;21.10;68.90;;;;;;6215212;23;20305;-78
2023/06/11 06:53:37;;;;;;;;;;;21.10;69.10;;;;;;6216193;23;19995;-79
2023/06/11 06:56:06;;;;;;;;;;;21.20;69.10;;;;;;6191055;23;19935;-78
2023/06/11 06:58:32;;;;;;;;;;;21.20;68.90;;;;;;6218590;23;20303;-82
2023/06/11 07:01:04;;;;;;;;;;;21.30;69.20;;;;;;6217567;23;19915;-81
2023/06/11 07:03:30;;;;;;;;;;;21.20;69.20;;;;;;6193037;23;19918;-79
2023/06/11 07:05:56;;;;;;;;;;;21.20;69.60;;;;;;6217323;23;20325;-81
2023/06/11 07:08:22;;;;;;;;;;;21.30;69.60;;;;;;6217622;23;19935;-81
2023/06/11 07:11:01;;;;;;;;;;;21.30;69.60;;;;;;6242116;22;19921;-78
2023/06/11 07:13:42;;;;;;;;;;;21.40;69.50;;;;;;6218246;23;20054;-77
2023/06/11 07:16:08;;;;;;;;;;;21.40;69.50;;;;;;6216657;23;19915;-78
2023/06/11 07:18:46;;;;;;;;;;;21.50;69.70;;;;;;6192395;23;20295;-77
2023/06/11 07:21:13;;;;;;;;;;;21.50;69.60;;;;;;6217032;23;19911;-79
2023/06/11 07:23:45;;;;;;;;;;;21.60;69.50;;;;;;6217117;23;19974;-77
2023/06/11 07:26:13;;;;;;;;;;;21.60;69.20;;;;;;6217214;23;19935;-76
2023/06/11 07:28:40;;;;;;;;;;;21.70;69.40;;;;;;6217475;23;20284;-77
2023/06/11 07:31:26;;;;;;;;;;;21.70;69.20;;;;;;6216636;22;20343;-77
2023/06/11 07:33:53;;;;;;;;;;;21.80;69.00;;;;;;6217169;23;19969;-76
2023/06/11 07:36:19;;;;;;;;;;;21.80;68.80;;;;;;6243579;23;19919;-76
2023/06/11 07:39:00;;;;;;;;;;;21.90;68.90;;;;;;6216669;23;20273;-77
2023/06/11 07:41:41;;;;;;;;;;;21.90;68.50;;;;;;6216927;23;19916;-77
2023/06/11 07:44:13;;;;;;;;;;;21.90;68.30;;;;;;6216716;23;19907;-77
2023/06/11 07:46:39;;;;;;;;;;;21.90;68.20;;;;;;6216982;23;19916;-77
2023/06/11 07:49:08;;;;;;;;;;;22.00;68.30;;;;;;6216818;23;20229;-78
2023/06/11 07:51:37;;;;;;;;;;;22.00;68.00;;;;;;6216929;23;20296;-79
2023/06/11 07:54:04;;;;;;;;;;;22.00;68.10;;;;;;6192061;23;19942;-80
2023/06/11 07:56:30;;;;;;;;;;;22.00;67.40;;;;;;6243452;23;19991;-77
2023/06/11 07:59:02;;;;;;;;;;;22.00;67.40;;;;;;6244511;23;19916;-76
2023/06/11 08:01:28;;;;;;;;;;;22.10;68.00;;;;;;6216787;23;20007;-76
2023/06/11 08:03:54;;;;;;;;;;;22.10;68.00;;;;;;6215871;23;19994;-77
2023/06/11 08:06:20;;;;;;;;;;;22.20;67.90;;;;;;6191099;23;19985;-77
2023/06/11 08:08:47;;;;;;;;;;;22.30;67.90;;;;;;6216300;23;19918;-76
2023/06/11 08:11:19;;;;;;;;;;;22.30;67.60;;;;;;6216136;23;20306;-77
2023/06/11 08:13:45;;;;;;;;;;;22.40;67.60;;;;;;6217434;23;19942;-78
2023/06/11 08:16:11;;;;;;;;;;;22.40;67.70;;;;;;6216655;22;19986;-78
2023/06/11 08:18:37;;;;;;;;;;;22.40;67.90;;;;;;6244146;23;19935;-77
2023/06/11 08:21:05;;;;;;;;;;;22.30;67.80;;;;;;6243191;23;20010;-77
2023/06/11 08:23:35;;;;;;;;;;;22.40;67.90;;;;;;6217276;23;19918;-80
2023/06/11 08:26:22;;;;;;;;;;;22.30;67.90;;;;;;6216697;23;19908;-77
2023/06/11 08:28:53;;;;;;;;;;;22.30;68.20;;;;;;6220003;23;19915;-80
2023/06/11 08:31:19;;;;;;;;;;;22.30;68.00;;;;;;6216771;23;20237;-77
2023/06/11 08:33:45;;;;;;;;;;;22.30;68.20;;;;;;6215780;23;20021;-80
2023/06/11 08:36:11;;;;;;;;;;;22.40;68.20;;;;;;6215740;23;19912;-77
2023/06/11 08:38:52;;;;;;;;;;;22.50;68.10;;;;;;6216619;23;19916;-80
2023/06/11 08:41:19;;;;;;;;;;;22.60;67.70;;;;;;6243502;23;19908;-76
2023/06/11 08:43:45;;;;;;;;;;;22.70;67.60;;;;;;6216608;23;19922;-78
2023/06/11 08:46:45;;;;;;;;;;;22.70;67.50;;;;;;6243072;23;20321;-77
2023/06/11 08:49:41;;;;;;;;;;;22.80;67.40;;;;;;6217572;23;19933;-79
2023/06/11 08:52:51;;;;;;;;;;;22.80;67.20;;;;;;6242601;23;20316;-78
2023/06/11 08:55:18;;;;;;;;;;;22.80;67.20;;;;;;6125070;23;20362;-77
2023/06/11 08:57:43;;;;;;;;;;;22.80;67.10;;;;;;6125650;23;19920;-78
2023/06/11 09:00:16;;;;;;;;;;;23.00;67.00;;;;;;6124319;23;20310;-77
2023/06/11 09:02:42;;;;;;;;;;;23.20;66.40;;;;;;6125619;23;19913;-76
2023/06/11 09:05:09;;;;;;;;;;;23.30;66.20;;;;;;6124687;23;19940;-77
2023/06/11 09:07:36;;;;;;;;;;;23.40;66.00;;;;;;6125639;23;19944;-77
2023/06/11 09:10:22;;;;;;;;;;;23.60;66.00;;;;;;6125134;23;19921;-77
2023/06/11 09:12:48;;;;;;;;;;;23.60;65.40;;;;;;6100687;23;19915;-79
2023/06/11 09:15:24;;;;;;;;;;;23.70;65.10;;;;;;6124372;23;20254;-79
2023/06/11 09:17:56;;;;;;;;;;;23.80;64.80;;;;;;6149466;23;19908;-79
2023/06/11 09:20:25;;;;;;;;;;;23.90;64.50;;;;;;6125118;23;20011;-80
2023/06/11 09:22:52;;;;;;;;;;;24.00;64.10;;;;;;6125526;23;19908;-80
2023/06/11 09:25:18;;;;;;;;;;;24.10;62.90;;;;;;6139277;23;20293;-79
2023/06/11 09:27:46;;;;;;;;;;;24.30;63.30;;;;;;6185130;23;19991;-80
2023/06/11 09:30:16;;;;;;;;;;;24.40;62.80;;;;;;6186111;23;19915;-78
2023/06/11 09:32:44;;;;;;;;;;;24.60;62.20;;;;;;6186393;23;20188;-80
2023/06/11 09:35:11;;;;;;;;;;;24.60;62.10;;;;;;6185964;23;19911;-80
2023/06/11 09:38:00;;;;;;;;;;;24.80;61.60;;;;;;6186275;23;19911;-78
2023/06/11 09:40:25;;;;;;;;;;;24.80;61.40;;;;;;6161024;23;19927;-80
2023/06/11 09:42:58;;;;;;;;;;;25.00;60.80;;;;;;6211954;23;19912;-80
2023/06/11 09:45:25;;;;;;;;;;;25.40;59.70;;;;;;6186070;23;19974;-79
2023/06/11 09:47:51;;;;;;;;;;;26.10;58.20;;;;;;6186081;23;19946;-80
2023/06/11 09:50:23;;;;;;;;;;;26.50;57.00;;;;;;6184762;23;20328;-78
2023/06/11 09:53:05;;;;;;;;;;;26.50;56.20;;;;;;6185547;23;19912;-79
2023/06/11 09:55:34;;;;;;;;;;;26.40;56.40;;;;;;6184420;23;19916;-79
2023/06/11 09:58:22;;;;;;;;;;;26.20;56.30;;;;;;6212203;23;19935;-79
2023/06/11 10:00:50;;;;;;;;;;;25.90;56.00;;;;;;6185124;23;20277;-80
2023/06/11 10:03:16;;;;;;;;;;;25.70;56.10;;;;;;6161126;23;19916;-80
2023/06/11 10:06:04;;;;;;;;;;;25.40;56.40;;;;;;6204844;23;19985;-80
2023/06/11 10:08:40;;;;;;;;;;;25.30;56.30;;;;;;6214974;23;19982;-80
2023/06/11 10:11:07;;;;;;;;;;;25.50;56.20;;;;;;6216048;23;19958;-80
2023/06/11 10:13:34;;;;;;;;;;;26.20;55.20;;;;;;6216629;23;19911;-80
2023/06/11 10:16:12;;;;;;;;;;;26.40;54.10;;;;;;6215313;23;19916;-78
2023/06/11 10:18:38;;;;;;;;;;;26.80;53.30;;;;;;6215886;23;19961;-78
2023/06/11 10:21:13;;;;;;;;;;;27.50;52.30;;;;;;6215992;23;20337;-79
2023/06/11 10:23:40;;;;;;;;;;;27.90;50.40;;;;;;6216836;23;20305;-77
2023/06/11 10:26:07;;;;;;;;;;;28.40;49.50;;;;;;6214357;23;19973;-77
2023/06/11 10:29:02;;;;;;;;;;;29.20;48.30;;;;;;6216771;23;20084;-78
2023/06/11 10:31:29;;;;;;;;;;;29.90;45.70;;;;;;6214954;23;20431;-78
2023/06/11 10:34:32;;;;;;;;;;;30.60;45.00;;;;;;6215803;23;19912;-78
2023/06/11 10:37:52;;;;;;;;;;;30.70;44.30;;;;;;6242404;22;19923;-77
2023/06/11 10:40:18;;;;;;;;;;;30.60;44.60;;;;;;6148246;23;19963;-79
2023/06/11 10:42:44;;;;;;;;;;;30.50;44.10;;;;;;6124854;23;20366;-78
2023/06/11 10:45:51;;;;;;;;;;;30.20;43.80;;;;;;6149154;23;19908;-77
2023/06/11 10:48:32;;;;;;;;;;;29.90;44.10;;;;;;6148911;23;20270;-77
2023/06/11 10:51:35;;;;;;;;;;;29.90;44.50;;;;;;6124474;23;20017;-78
2023/06/11 10:54:02;;;;;;;;;;;29.80;44.50;;;;;;6124666;23;20002;-78
2023/06/11 10:56:58;;;;;;;;;;;29.40;45.00;;;;;;6148653;23;20329;-77
2023/06/11 10:59:25;;;;;;;;;;;29.10;45.00;;;;;;6066826;23;19913;-80
2023/06/11 11:02:28;;;;;;;;;;;29.40;44.40;;;;;;6065418;23;20312;-80
2023/06/11 11:05:15;;;;;;;;;;;29.30;44.90;;;;;;6066136;23;19921;-77
2023/06/11 11:07:44;;;;;;;;;;;29.40;44.80;;;;;;6066717;23;19909;-76
2023/06/11 11:10:11;;;;;;;;;;;29.00;44.80;;;;;;6104153;23;20295;-78
2023/06/11 11:12:39;;;;;;;;;;;29.60;43.50;;;;;;6149685;23;19908;-79
2023/06/11 11:15:05;;;;;;;;;;;29.30;43.60;;;;;;6124486;23;19921;-78
2023/06/11 11:17:32;;;;;;;;;;;28.90;43.60;;;;;;6124618;23;19916;-77
2023/06/11 11:20:13;;;;;;;;;;;28.40;44.60;;;;;;6124275;23;19964;-79
2023/06/11 11:22:39;;;;;;;;;;;27.90;45.40;;;;;;6149222;23;19916;-76
2023/06/11 11:25:07;;;;;;;;;;;27.50;46.40;;;;;;6125111;23;19916;-78
2023/06/11 11:27:48;;;;;;;;;;;27.20;47.10;;;;;;6124427;23;19941;-78
2023/06/11 11:30:32;;;;;;;;;;;26.90;47.60;;;;;;6148489;23;19959;-75
2023/06/11 11:32:58;;;;;;;;;;;26.80;48.00;;;;;;6124432;23;19917;-80
2023/06/11 11:36:03;;;;;;;;;;;26.70;48.50;;;;;;6154923;23;19919;-79
2023/06/11 11:38:34;;;;;;;;;;;26.50;48.90;;;;;;6215756;23;19965;-78
2023/06/11 11:41:27;;;;;;;;;;;26.30;49.50;;;;;;6214316;23;19915;-78
2023/06/11 11:43:53;;;;;;;;;;;26.00;50.20;;;;;;6216749;22;20380;-76
2023/06/11 11:46:23;;;;;;;;;;;26.00;50.60;;;;;;6246049;22;19946;-77
2023/06/11 11:48:54;;;;;;;;;;;26.00;51.00;;;;;;6248239;22;20341;-77
2023/06/11 11:51:20;;;;;;;;;;;25.90;50.60;;;;;;6247070;22;20218;-77
2023/06/11 11:53:46;;;;;;;;;;;25.80;50.50;;;;;;6247394;22;20236;-80
2023/06/11 11:56:12;;;;;;;;;;;25.80;51.30;;;;;;6247722;22;19961;-78
2023/06/11 11:59:34;;;;;;;;;;;25.80;51.00;;;;;;6247750;22;20370;-76
2023/06/11 12:02:01;;;;;;;;;;;25.70;51.30;;;;;;6246120;22;20244;-79
2023/06/11 12:04:46;;;;;;;;;;;25.80;51.50;;;;;;6247742;22;19912;-79
2023/06/11 12:07:34;;;;;;;;;;;25.60;51.60;;;;;;6247754;22;19965;-80
2023/06/11 12:10:24;;;;;;;;;;;25.70;51.70;;;;;;6222095;22;20018;-79
2023/06/11 12:12:50;;;;;;;;;;;25.80;51.90;;;;;;6222381;22;20360;-77
2023/06/11 12:15:16;;;;;;;;;;;25.80;52.10;;;;;;6247644;22;19941;-77
2023/06/11 12:17:43;;;;;;;;;;;25.80;52.00;;;;;;6274043;22;19915;-76
2023/06/11 12:20:32;;;;;;;;;;;25.70;52.20;;;;;;6221559;22;19922;-77
2023/06/11 12:22:58;;;;;;;;;;;25.80;52.20;;;;;;6149645;23;19913;-77
2023/06/11 12:25:25;;;;;;;;;;;25.80;52.20;;;;;;6150188;23;19917;-77
2023/06/11 12:28:28;;;;;;;;;;;25.80;52.40;;;;;;6090989;23;19924;-77
2023/06/11 12:30:58;;;;;;;;;;;25.90;52.20;;;;;;6091807;23;19913;-77
2023/06/11 12:33:24;;;;;;;;;;;26.00;52.50;;;;;;6115807;23;20281;-79
2023/06/11 12:35:59;;;;;;;;;;;26.00;53.20;;;;;;6090926;23;19913;-76
2023/06/11 12:38:25;;;;;;;;;;;26.00;52.10;;;;;;6092244;23;19924;-79
2023/06/11 12:40:52;;;;;;;;;;;26.00;52.40;;;;;;6067005;23;19916;-79
2023/06/11 12:43:18;;;;;;;;;;;26.10;51.80;;;;;;6116151;23;19932;-78
2023/06/11 12:45:44;;;;;;;;;;;26.20;52.20;;;;;;6090548;23;20343;-76
2023/06/11 12:48:26;;;;;;;;;;;26.30;51.80;;;;;;6115713;23;19921;-76
2023/06/11 12:51:13;;;;;;;;;;;26.70;50.90;;;;;;5996583;23;19911;-79
2023/06/11 12:53:39;;;;;;;;;;;27.10;50.70;;;;;;5978020;24;19918;-78
2023/06/11 12:56:12;;;;;;;;;;;27.90;48.80;;;;;;5953682;24;19994;-76
2023/06/11 12:58:39;;;;;;;;;;;28.10;47.60;;;;;;5993778;23;20287;-78
2023/06/11 13:01:06;;;;;;;;;;;28.20;48.00;;;;;;6116741;23;19927;-77
2023/06/11 13:03:32;;;;;;;;;;;28.80;46.60;;;;;;6096323;23;19927;-77
2023/06/11 13:05:58;;;;;;;;;;;29.70;45.20;;;;;;6096842;23;19921;-77
2023/06/11 13:08:39;;;;;;;;;;;30.60;43.70;;;;;;6096270;23;20000;-77
2023/06/11 13:11:05;;;;;;;;;;;30.70;42.70;;;;;;6096245;23;19917;-79
2023/06/11 13:13:31;;;;;;;;;;;30.60;42.50;;;;;;6120978;23;19908;-77
2023/06/11 13:15:57;;;;;;;;;;;30.50;43.10;;;;;;6120256;23;19955;-79
2023/06/11 13:18:23;;;;;;;;;;;30.20;43.60;;;;;;6095380;23;20391;-78
2023/06/11 13:20:49;;;;;;;;;;;30.10;43.90;;;;;;6096182;23;20220;-80
2023/06/11 13:23:33;;;;;;;;;;;30.10;43.90;;;;;;6095537;23;19912;-76
2023/06/11 13:26:00;;;;;;;;;;;29.90;43.00;;;;;;6096629;23;19921;-76
2023/06/11 13:28:27;;;;;;;;;;;29.90;43.20;;;;;;6193227;22;19911;-79
2023/06/11 13:31:11;;;;;;;;;;;30.00;43.50;;;;;;6220597;22;19915;-77
2023/06/11 13:33:56;;;;;;;;;;;30.30;42.80;;;;;;6274416;22;19997;-76
2023/06/11 13:36:22;;;;;;;;;;;30.30;42.20;;;;;;6247021;22;19918;-80
2023/06/11 13:39:18;;;;;;;;;;;30.30;41.60;;;;;;6246406;22;19911;-77
2023/06/11 13:41:45;;;;;;;;;;;30.30;41.70;;;;;;6247054;22;20010;-80
2023/06/11 13:44:11;;;;;;;;;;;30.40;41.50;;;;;;6220990;22;19965;-77
2023/06/11 13:46:37;;;;;;;;;;;30.40;41.40;;;;;;6272400;22;19978;-79
2023/06/11 13:49:03;;;;;;;;;;;30.30;41.70;;;;;;6221375;22;19984;-77
2023/06/11 13:51:31;;;;;;;;;;;30.30;41.70;;;;;;6246013;22;19911;-79
2023/06/11 13:53:58;;;;;;;;;;;30.00;42.10;;;;;;6222067;22;19922;-81
2023/06/11 13:56:24;;;;;;;;;;;29.80;42.20;;;;;;6245964;22;20349;-76
2023/06/11 13:58:50;;;;;;;;;;;29.90;42.10;;;;;;6247031;22;20263;-78
2023/06/11 14:02:00;;;;;;;;;;;29.90;42.10;;;;;;6246621;22;19907;-77
2023/06/11 14:04:38;;;;;;;;;;;29.80;42.10;;;;;;6273190;22;19915;-77
2023/06/11 14:07:04;;;;;;;;;;;29.70;42.40;;;;;;6221140;22;19931;-79
2023/06/11 14:09:31;;;;;;;;;;;29.60;42.60;;;;;;6246342;22;19954;-76
2023/06/11 14:12:12;;;;;;;;;;;29.40;42.80;;;;;;6245563;22;19911;-78
2023/06/11 14:14:44;;;;;;;;;;;29.30;43.40;;;;;;6274581;22;19926;-77
2023/06/11 14:17:17;;;;;;;;;;;29.30;43.70;;;;;;6245901;22;19911;-78
2023/06/11 14:19:43;;;;;;;;;;;29.10;43.30;;;;;;6221397;22;19915;-79
2023/06/11 14:22:09;;;;;;;;;;;29.10;43.40;;;;;;6221289;22;19913;-79
2023/06/11 14:24:35;;;;;;;;;;;29.00;43.50;;;;;;6221308;22;19915;-77
2023/06/11 14:27:01;;;;;;;;;;;28.90;43.00;;;;;;6221152;22;19922;-76
2023/06/11 14:29:45;;;;;;;;;;;28.80;42.70;;;;;;6246464;22;19945;-77
2023/06/11 14:32:11;;;;;;;;;;;28.60;42.80;;;;;;6246086;22;19915;-80
2023/06/11 14:34:37;;;;;;;;;;;28.60;43.40;;;;;;6246082;22;19919;-77
2023/06/11 14:37:03;;;;;;;;;;;28.40;43.90;;;;;;6245922;22;20308;-79
2023/06/11 14:39:41;;;;;;;;;;;28.40;43.30;;;;;;6246680;22;19916;-78
2023/06/11 14:42:08;;;;;;;;;;;28.40;44.20;;;;;;6246730;22;19938;-76
2023/06/11 14:44:34;;;;;;;;;;;28.30;44.60;;;;;;6220459;22;20052;-79
2023/06/11 14:47:31;;;;;;;;;;;28.30;44.80;;;;;;6246097;22;19989;-79
2023/06/11 14:50:00;;;;;;;;;;;28.20;44.30;;;;;;6246097;22;19911;-78
2023/06/11 14:52:26;;;;;;;;;;;28.20;44.60;;;;;;6220286;22;19915;-76
2023/06/11 14:54:52;;;;;;;;;;;28.10;44.80;;;;;;6221516;22;19994;-79